M I D A S
Marine Information and Data Acquisition System
Tripno 1711 of the Zeeleeuw from 2009-06-17 08:24:53 to 2009-06-17 18:02:55
Back to CruiseResearch ActivitiesStationsMapUnderway DataData graphs

EquipmentUnitsComments
TimeDGPSUTC
LatitudeDGPSDM.mWGS84
LongitudeDGPSDM.mWGS84
SpeedMeteo Stationm/sRelative wind speed
DirectionMeteo StationdegRelative wind direction
TemperatureMeteo Stationdeg CelciusAir temperature
PressureMeteo StationPaAtmospheric pressure
HumidityMeteo Station%Relative humidity
Missing or incorrect values are displayed as -999
Metereological data collected by the RV Zeeleeuw from 2009-06-17 08:10:31 to 2009-06-17 18:11:20
Time Latitude Longitude Speed Direction Temperature Pressure Humidity
2009-06-17 08:11 51°13.682 2°55.887 2.3 18 18.3 102120 63
2009-06-17 08:12 51°13.694 2°55.797 2 30 18.4 102120 62
2009-06-17 08:13 51°13.698 2°55.759 2.8 24 18.5 102120 63
2009-06-17 08:14 51°13.705 2°55.759 3.2 37 18.6 102120 61
2009-06-17 08:15 51°13.731 2°55.735 1.6 33 18.7 102120 61
2009-06-17 08:16 51°13.826 2°55.642 2.2 253 18.8 102120 62
2009-06-17 08:17 51°13.949 2°55.546 2 239 19 102120 61
2009-06-17 08:18 51°14.076 2°55.447 2.3 256 19.2 102120 60
2009-06-17 08:19 51°14.2 2°55.331 2.5 254 19.3 102120 59
2009-06-17 08:20 51°14.307 2°55.164 4.1 246 19.4 102110 59
2009-06-17 08:21 51°14.406 2°54.959 4 241 19.4 102110 59
2009-06-17 08:22 51°14.502 2°54.733 5.1 235 19.3 102100 59
2009-06-17 08:23 51°14.601 2°54.484 6.8 245 19.3 102110 59
2009-06-17 08:24 51°14.693 2°54.22 6.7 245 19.3 102090 60
2009-06-17 08:25 51°14.766 2°53.941 6.1 235 19.2 102100 59
2009-06-17 08:26 51°14.834 2°53.66 7.5 237 19.2 102100 61
2009-06-17 08:27 51°14.901 2°53.375 7.7 240 19 102090 60
2009-06-17 08:28 51°14.972 2°53.091 6.8 238 19 102100 60
2009-06-17 08:29 51°15.033 2°52.804 6.6 242 18.9 102100 61
2009-06-17 08:30 51°15.072 2°52.513 7.9 233 18.9 102090 61
2009-06-17 08:31 51°15.063 2°52.218 9.3 34 18.8 102080 62
2009-06-17 08:32 51°15.042 2°51.926 10.8 32 18.8 102080 63
2009-06-17 08:33 51°15.025 2°51.633 7.8 36 18.7 102080 62
2009-06-17 08:34 51°15.032 2°51.338 7.6 39 18.6 102080 63
2009-06-17 08:35 51°15.082 2°51.049 7.8 241 18.6 102090 64
2009-06-17 08:36 51°15.139 2°50.761 8.8 241 18.6 102070 63
2009-06-17 08:37 51°15.192 2°50.469 7.9 240 18.6 102080 64
2009-06-17 08:38 51°15.243 2°50.177 7.5 235 18.6 102080 64
2009-06-17 08:39 51°15.293 2°49.885 6.4 238 18.6 102080 65
2009-06-17 08:40 51°15.35 2°49.595 5.8 34 18.6 102090 66
2009-06-17 08:41 51°15.402 2°49.306 6.4 235 18.5 102070 65
2009-06-17 08:42 51°15.451 2°49.015 6.5 35 18.5 102080 66
2009-06-17 08:43 51°15.496 2°48.724 8.1 33 18.5 102070 66
2009-06-17 08:44 51°15.543 2°48.432 6.5 235 18.5 102070 66
2009-06-17 08:45 51°15.618 2°48.155 6 239 18.4 102070 66
2009-06-17 08:46 51°15.705 2°47.883 6 242 18.5 102070 67
2009-06-17 08:47 51°15.795 2°47.611 7.5 240 18.5 102070 66
2009-06-17 08:48 51°15.883 2°47.34 5.8 241 18.5 102070 66
2009-06-17 08:49 51°15.969 2°47.067 5.7 240 18.5 102070 67
2009-06-17 08:50 51°16.057 2°46.796 5.9 241 18.5 102060 66
2009-06-17 08:51 51°16.143 2°46.524 5.9 243 18.5 102060 66
2009-06-17 08:52 51°16.23 2°46.255 5.6 239 18.6 102060 67
2009-06-17 08:53 51°16.316 2°45.982 5.7 243 18.6 102060 68
2009-06-17 08:54 51°16.416 2°45.716 6 240 18.5 102070 68
2009-06-17 08:55 51°16.518 2°45.449 5.7 241 18.5 102060 68
2009-06-17 08:56 51°16.617 2°45.181 6 243 18.5 102050 68
2009-06-17 08:57 51°16.721 2°44.916 6.2 243 18.4 102050 68
2009-06-17 08:58 51°16.824 2°44.647 5.7 241 18.5 102050 68
2009-06-17 08:59 51°16.926 2°44.377 5.7 241 18.5 102050 68
2009-06-17 09:00 51°17.023 2°44.106 5.2 239 18.5 102050 69
2009-06-17 09:01 51°17.121 2°43.836 6.8 240 18.5 102050 69
2009-06-17 09:02 51°17.22 2°43.565 6.2 236 18.5 102050 69
2009-06-17 09:03 51°17.319 2°43.295 4.7 239 18.4 102040 70
2009-06-17 09:04 51°17.418 2°43.025 6 240 18.4 102040 70
2009-06-17 09:05 51°17.517 2°42.757 4.3 237 18.4 102050 70
2009-06-17 09:06 51°17.617 2°42.487 5.5 239 18.4 102040 70
2009-06-17 09:07 51°17.707 2°42.211 5.7 238 18.4 102040 70
2009-06-17 09:08 51°17.794 2°41.934 5.7 239 18.4 102030 70
2009-06-17 09:09 51°17.881 2°41.656 4.8 242 18.4 102030 70
2009-06-17 09:10 51°17.967 2°41.377 6.1 240 18.4 102030 70
2009-06-17 09:11 51°18.05 2°41.096 5.6 236 18.4 102030 71
2009-06-17 09:12 51°18.132 2°40.816 4.9 238 18.3 102030 71
2009-06-17 09:13 51°18.216 2°40.538 5.1 235 18.3 102030 72
2009-06-17 09:14 51°18.307 2°40.267 5.3 237 18.3 102040 71
2009-06-17 09:15 51°18.399 2°40.001 6.4 238 18.3 102040 71
2009-06-17 09:16 51°18.493 2°39.734 5.5 236 18.2 102030 71
2009-06-17 09:17 51°18.589 2°39.471 6 237 18.2 102040 71
2009-06-17 09:18 51°18.69 2°39.207 5.8 35 18.2 102030 71
2009-06-17 09:19 51°18.786 2°38.941 5 235 18.3 102030 72
2009-06-17 09:20 51°18.877 2°38.67 5.1 34 18.2 102030 73
2009-06-17 09:21 51°18.97 2°38.398 5.1 238 18.2 102030 73
2009-06-17 09:22 51°19.054 2°38.117 5.9 237 18.1 102030 73
2009-06-17 09:23 51°19.138 2°37.833 6 238 18.1 102030 73
2009-06-17 09:24 51°19.223 2°37.551 6.3 236 18.1 102030 73
2009-06-17 09:25 51°19.31 2°37.269 5 234 18.1 102030 73
2009-06-17 09:26 51°19.396 2°36.996 5.2 235 18.1 102030 73
2009-06-17 09:27 51°19.484 2°36.718 5.4 236 18 102030 73
2009-06-17 09:28 51°19.556 2°36.433 7.3 236 18 102030 73
2009-06-17 09:29 51°19.621 2°36.143 7.2 233 17.9 102030 73
2009-06-17 09:30 51°19.688 2°35.854 7.8 32 17.8 102020 74
2009-06-17 09:31 51°19.755 2°35.565 5.6 36 17.7 102030 74
2009-06-17 09:32 51°19.822 2°35.278 7.5 233 17.7 102030 74
2009-06-17 09:33 51°19.893 2°34.991 7.9 34 17.6 102030 75
2009-06-17 09:34 51°19.965 2°34.704 7.5 33 17.6 102030 75
2009-06-17 09:35 51°20.031 2°34.411 6 32 17.6 102030 75
2009-06-17 09:36 51°20.077 2°34.159 5.2 243 17.5 102030 75
2009-06-17 09:37 51°20.106 2°33.994 5.7 246 17.6 102030 76
2009-06-17 09:38 51°20.124 2°33.851 5.8 244 17.7 102030 75
2009-06-17 09:39 51°20.142 2°33.716 4.9 246 17.7 102030 75
2009-06-17 09:40 51°20.158 2°33.601 5.6 251 17.7 102030 75
2009-06-17 09:41 51°20.171 2°33.523 5.3 248 17.8 102030 74
2009-06-17 09:42 51°20.181 2°33.504 5.1 242 17.9 102030 74
2009-06-17 09:43 51°20.191 2°33.495 4.4 240 18 102030 74
2009-06-17 09:44 51°20.199 2°33.489 4.4 33 18 102030 73
2009-06-17 09:45 51°20.207 2°33.484 4.3 39 18.1 102030 73
2009-06-17 09:46 51°20.214 2°33.48 4.9 41 18.1 102030 72
2009-06-17 09:47 51°20.216 2°33.476 4.3 40 18.1 102020 71
2009-06-17 09:48 51°20.217 2°33.473 5.1 316 18.1 102030 72
2009-06-17 09:49 51°20.222 2°33.473 5 316 18.1 102020 72
2009-06-17 09:50 51°20.214 2°33.474 6.2 330 18 102020 71
2009-06-17 09:51 51°20.192 2°33.495 5.8 344 18 102020 72
2009-06-17 09:52 51°20.181 2°33.525 4.9 348 17.8 102020 72
2009-06-17 09:53 51°20.181 2°33.555 5.1 354 17.6 102010 74
2009-06-17 09:54 51°20.187 2°33.583 5.4 356 17.4 102010 75
2009-06-17 09:55 51°20.195 2°33.608 4.5 357 17.3 102010 76
2009-06-17 09:56 51°20.205 2°33.631 4.5 358 17.3 102010 76
2009-06-17 09:57 51°20.216 2°33.651 4.4 356 17.2 102000 76
2009-06-17 09:58 51°20.227 2°33.669 5 355 17.2 102000 76
2009-06-17 09:59 51°20.24 2°33.684 5.6 355 17.3 102000 75
2009-06-17 10:00 51°20.254 2°33.698 5 358 17.3 102000 74
2009-06-17 10:01 51°20.269 2°33.71 5.1 359 17.4 101990 74
2009-06-17 10:02 51°20.285 2°33.722 5.3 5 17.4 102000 74
2009-06-17 10:03 51°20.301 2°33.733 4.6 7 17.4 102000 74
2009-06-17 10:04 51°20.317 2°33.743 4.6 15 17.5 101990 73
2009-06-17 10:05 51°20.333 2°33.752 4.7 20 17.5 102000 73
2009-06-17 10:06 51°20.349 2°33.761 4.1 24 17.5 102000 73
2009-06-17 10:07 51°20.364 2°33.77 4.3 26 17.6 102000 73
2009-06-17 10:08 51°20.38 2°33.778 4.6 29 17.6 102000 73
2009-06-17 10:09 51°20.395 2°33.785 5 28 17.7 102000 73
2009-06-17 10:10 51°20.41 2°33.792 4.6 27 17.7 102000 73
2009-06-17 10:11 51°20.426 2°33.797 5.1 28 17.7 101990 72
2009-06-17 10:12 51°20.441 2°33.802 5 29 17.8 102000 72
2009-06-17 10:13 51°20.455 2°33.807 5.3 29 17.8 101980 72
2009-06-17 10:14 51°20.47 2°33.811 5.1 30 17.8 101990 72
2009-06-17 10:15 51°20.484 2°33.813 4.4 29 17.8 101980 72
2009-06-17 10:16 51°20.498 2°33.814 4.8 27 17.8 101970 72
2009-06-17 10:17 51°20.512 2°33.815 4.4 26 17.8 101970 72
2009-06-17 10:18 51°20.526 2°33.813 4.7 28 17.7 101960 73
2009-06-17 10:19 51°20.54 2°33.811 4.5 29 17.7 101960 74
2009-06-17 10:20 51°20.555 2°33.814 3.9 31 17.7 101960 74
2009-06-17 10:21 51°20.576 2°33.836 4.8 13 17.7 101960 74
2009-06-17 10:22 51°20.559 2°33.914 6.7 334 17.7 101950 74
2009-06-17 10:23 51°20.455 2°33.915 10 323 17.7 101950 75
2009-06-17 10:24 51°20.316 2°33.83 8.8 321 17.8 101940 75
2009-06-17 10:25 51°20.167 2°33.706 10 322 17.8 101940 74
2009-06-17 10:26 51°20.068 2°33.661 6.3 326 17.9 101940 74
2009-06-17 10:27 51°20.024 2°33.663 6.2 330 18 101940 73
2009-06-17 10:28 51°20 2°33.673 5.5 333 18 101940 72
2009-06-17 10:29 51°19.989 2°33.682 5.8 333 18 101940 73
2009-06-17 10:30 51°19.983 2°33.685 5.5 328 18 101940 72
2009-06-17 10:31 51°19.98 2°33.684 4.8 325 18 101930 72
2009-06-17 10:32 51°19.985 2°33.678 5.5 318 18.1 101940 71
2009-06-17 10:33 51°19.993 2°33.671 4.7 315 18.2 101930 71
2009-06-17 10:34 51°20.005 2°33.664 4.8 230 18.3 101930 71
2009-06-17 10:35 51°20.018 2°33.658 4.9 35 18.4 101930 71
2009-06-17 10:36 51°20.032 2°33.651 4.1 240 18.5 101940 71
2009-06-17 10:37 51°20.048 2°33.646 4.7 243 18.6 101930 71
2009-06-17 10:38 51°20.063 2°33.643 4 248 18.7 101950 71
2009-06-17 10:39 51°20.079 2°33.641 4.8 253 18.7 101950 71
2009-06-17 10:40 51°20.095 2°33.64 4.8 254 18.7 101940 71
2009-06-17 10:41 51°20.11 2°33.639 4.5 254 18.6 101940 71
2009-06-17 10:42 51°20.107 2°33.594 6.5 234 18.5 101940 72
2009-06-17 10:43 51°20.068 2°33.537 6 330 18.4 101930 71
2009-06-17 10:44 51°19.996 2°33.621 8.3 339 18.3 101930 71
2009-06-17 10:45 51°19.899 2°33.812 8.5 345 18.1 101930 72
2009-06-17 10:46 51°19.806 2°34.019 8.2 350 17.9 101930 72
2009-06-17 10:47 51°19.844 2°34.14 1.5 39 17.8 101940 72
2009-06-17 10:48 51°19.905 2°34.104 4 270 17.9 101940 72
2009-06-17 10:49 51°19.94 2°34.062 3.6 266 18.1 101950 72
2009-06-17 10:50 51°19.964 2°34.028 3.5 267 18.1 101950 71
2009-06-17 10:51 51°19.978 2°34.009 2.9 264 18.1 101950 71
2009-06-17 10:52 51°19.99 2°33.995 3.3 263 18.1 101950 71
2009-06-17 10:53 51°20.003 2°33.981 5.3 260 18.1 101950 72
2009-06-17 10:54 51°20.014 2°33.974 5.4 259 18.1 101950 72
2009-06-17 10:55 51°20.026 2°33.971 5 261 18.1 101950 72
2009-06-17 10:56 51°20.036 2°33.97 3.2 262 18 101950 72
2009-06-17 10:57 51°20.046 2°33.97 3.7 264 18 101960 72
2009-06-17 10:58 51°20.054 2°33.971 4.8 267 18 101960 72
2009-06-17 10:59 51°20.061 2°33.972 4.6 270 18 101950 72
2009-06-17 11:00 51°20.068 2°33.973 5.6 34 18 101960 71
2009-06-17 11:01 51°20.073 2°33.974 4.4 34 18 101960 71
2009-06-17 11:02 51°20.079 2°33.975 4.7 41 18 101960 71
2009-06-17 11:03 51°20.084 2°33.974 5 33 18.1 101960 70
2009-06-17 11:04 51°20.09 2°33.972 5.4 42 18.1 101960 70
2009-06-17 11:05 51°20.096 2°33.969 4.6 40 18.1 101950 70
2009-06-17 11:06 51°20.103 2°33.965 5.4 36 18.2 101950 69
2009-06-17 11:07 51°20.111 2°33.96 5.4 34 18.2 101950 69
2009-06-17 11:08 51°20.119 2°33.954 5.2 34 18.3 101950 69
2009-06-17 11:09 51°20.128 2°33.948 5.2 32 18.3 101950 69
2009-06-17 11:10 51°20.137 2°33.941 4.9 37 18.3 101960 69
2009-06-17 11:11 51°20.146 2°33.935 4 270 18.4 101960 69
2009-06-17 11:12 51°20.155 2°33.927 4.7 39 18.4 101940 70
2009-06-17 11:13 51°20.164 2°33.921 4.8 41 18.3 101950 69
2009-06-17 11:14 51°20.172 2°33.913 4.7 42 18.3 101940 69
2009-06-17 11:15 51°20.181 2°33.906 4.6 270 18.3 101940 69
2009-06-17 11:16 51°20.19 2°33.897 4.2 41 18.3 101940 70
2009-06-17 11:17 51°20.199 2°33.889 4.5 329 18.2 101930 69
2009-06-17 11:18 51°20.207 2°33.88 4.2 270 18.2 101920 70
2009-06-17 11:19 51°20.216 2°33.871 4.5 15 18.2 101920 70
2009-06-17 11:20 51°20.228 2°33.856 4.6 263 18.2 101920 69
2009-06-17 11:21 51°20.241 2°33.815 5.8 241 18.2 101920 70
2009-06-17 11:22 51°20.236 2°33.759 4.8 318 18.2 101910 70
2009-06-17 11:23 51°20.22 2°33.724 5.5 332 18.2 101910 69
2009-06-17 11:24 51°20.206 2°33.708 5.4 342 18.2 101910 69
2009-06-17 11:25 51°20.199 2°33.699 5.4 344 18.1 101910 69
2009-06-17 11:26 51°20.197 2°33.69 5.7 348 18 101910 68
2009-06-17 11:27 51°20.199 2°33.683 4.8 348 18.1 101910 69
2009-06-17 11:28 51°20.203 2°33.674 6.2 350 18 101910 68
2009-06-17 11:29 51°20.21 2°33.665 5 355 18.1 101910 67
2009-06-17 11:30 51°20.219 2°33.656 4.9 -999 18.1 101910 68
2009-06-17 11:31 51°20.229 2°33.647 5.5 11 18.1 101900 68
2009-06-17 11:32 51°20.238 2°33.636 4.8 15 18.1 101910 70
2009-06-17 11:33 51°20.248 2°33.625 4.7 16 18 101900 70
2009-06-17 11:34 51°20.258 2°33.612 5 16 18.1 101900 70
2009-06-17 11:35 51°20.269 2°33.598 5.1 20 18.1 101900 69
2009-06-17 11:36 51°20.278 2°33.608 5.9 19 18.1 101900 69
2009-06-17 11:37 51°20.277 2°33.665 5.9 11 18.1 101890 68
2009-06-17 11:38 51°20.273 2°33.704 6 9 18.1 101890 68
2009-06-17 11:39 51°20.269 2°33.724 5.4 8 18.1 101880 68
2009-06-17 11:40 51°20.266 2°33.733 4.5 7 18.1 101880 69
2009-06-17 11:41 51°20.266 2°33.733 5.2 5 18 101870 70
2009-06-17 11:42 51°20.262 2°33.738 5.9 2 18 101870 69
2009-06-17 11:43 51°20.251 2°33.752 6 355 17.9 101870 70
2009-06-17 11:44 51°20.237 2°33.77 6 356 17.9 101870 71
2009-06-17 11:45 51°20.219 2°33.789 6.1 355 17.9 101860 70
2009-06-17 11:46 51°20.198 2°33.809 6.4 354 17.9 101860 70
2009-06-17 11:47 51°20.175 2°33.829 6 353 18 101860 69
2009-06-17 11:48 51°20.151 2°33.845 5.7 352 18 101860 69
2009-06-17 11:49 51°20.118 2°33.855 7.2 339 18 101860 69
2009-06-17 11:50 51°20.082 2°33.82 7.2 316 18.1 101860 68
2009-06-17 11:51 51°20.052 2°33.669 7.6 233 18.3 101850 68
2009-06-17 11:52 51°20.061 2°33.401 7.5 33 18.3 101850 68
2009-06-17 11:53 51°20.134 2°33.118 6.2 240 18.4 101840 68
2009-06-17 11:54 51°20.26 2°32.89 5.9 241 18.5 101850 68
2009-06-17 11:55 51°20.396 2°32.663 6.8 243 18.5 101850 67
2009-06-17 11:56 51°20.52 2°32.431 6.2 241 18.6 101860 67
2009-06-17 11:57 51°20.639 2°32.199 6.8 242 18.6 101850 67
2009-06-17 11:58 51°20.744 2°31.972 6 252 18.5 101850 66
2009-06-17 11:59 51°20.771 2°31.843 5.6 247 18.5 101850 67
2009-06-17 12:00 51°20.774 2°31.764 8.1 257 18.6 101840 67
2009-06-17 12:01 51°20.778 2°31.717 4.5 265 18.5 101840 66
2009-06-17 12:02 51°20.784 2°31.683 4.7 268 18.4 101850 67
2009-06-17 12:03 51°20.789 2°31.653 4.7 263 18.3 101840 67
2009-06-17 12:04 51°20.792 2°31.629 6.2 259 18.2 101840 68
2009-06-17 12:05 51°20.796 2°31.606 6.7 258 18.2 101830 68
2009-06-17 12:06 51°20.8 2°31.587 5.4 261 18.2 101830 68
2009-06-17 12:07 51°20.803 2°31.572 4.2 262 18.1 101830 68
2009-06-17 12:08 51°20.805 2°31.556 3.5 266 18.1 101840 68
2009-06-17 12:09 51°20.807 2°31.54 5.4 269 18.1 101840 68
2009-06-17 12:10 51°20.808 2°31.525 5.2 270 18.1 101840 69
2009-06-17 12:11 51°20.808 2°31.51 5.6 39 18.1 101840 68
2009-06-17 12:12 51°20.808 2°31.494 6 38 18.1 101830 68
2009-06-17 12:13 51°20.808 2°31.476 6.9 36 18.1 101830 68
2009-06-17 12:14 51°20.808 2°31.456 6.4 35 18.1 101830 68
2009-06-17 12:15 51°20.808 2°31.436 6.3 37 18.1 101830 67
2009-06-17 12:16 51°20.807 2°31.413 6.1 35 18.1 101830 67
2009-06-17 12:17 51°20.807 2°31.388 5.9 32 18.1 101830 68
2009-06-17 12:18 51°20.808 2°31.364 5.8 36 18.1 101830 67
2009-06-17 12:19 51°20.809 2°31.343 5.5 33 18.1 101830 68
2009-06-17 12:20 51°20.809 2°31.319 6.3 42 18.1 101830 68
2009-06-17 12:21 51°20.811 2°31.298 4.7 33 18.1 101820 68
2009-06-17 12:22 51°20.812 2°31.277 5.7 40 18 101830 68
2009-06-17 12:23 51°20.813 2°31.255 5.7 35 18 101830 68
2009-06-17 12:24 51°20.814 2°31.23 6.5 35 18 101820 69
2009-06-17 12:25 51°20.815 2°31.206 5.9 33 18 101820 69
2009-06-17 12:26 51°20.817 2°31.181 6 34 18 101820 68
2009-06-17 12:27 51°20.818 2°31.153 5 39 18 101810 68
2009-06-17 12:28 51°20.82 2°31.125 5.8 34 18.1 101810 68
2009-06-17 12:29 51°20.822 2°31.101 5.7 37 18.1 101810 68
2009-06-17 12:30 51°20.824 2°31.073 5.6 34 18.1 101810 69
2009-06-17 12:31 51°20.826 2°31.048 4.8 40 18.1 101800 69
2009-06-17 12:32 51°20.828 2°31.024 5.7 41 18.1 101800 69
2009-06-17 12:33 51°20.829 2°30.999 5.9 33 18.1 101790 69
2009-06-17 12:34 51°20.831 2°30.97 5.6 32 18.1 101780 69
2009-06-17 12:35 51°20.832 2°30.939 6.7 33 18 101780 69
2009-06-17 12:36 51°20.834 2°30.913 6.4 35 18 101780 69
2009-06-17 12:37 51°20.836 2°30.885 6.2 32 18 101770 69
2009-06-17 12:38 51°20.839 2°30.859 6 35 17.9 101770 70
2009-06-17 12:39 51°20.841 2°30.832 5.3 38 17.9 101770 69
2009-06-17 12:40 51°20.844 2°30.809 7.5 35 17.9 101780 69
2009-06-17 12:41 51°20.845 2°30.788 5.8 32 17.9 101780 69
2009-06-17 12:42 51°20.847 2°30.767 5.3 35 18 101790 68
2009-06-17 12:43 51°20.847 2°30.748 5.7 32 18 101790 67
2009-06-17 12:44 51°20.848 2°30.728 6.9 37 18.1 101790 68
2009-06-17 12:45 51°20.848 2°30.708 5.9 34 18.1 101780 68
2009-06-17 12:46 51°20.849 2°30.688 6 37 18.1 101780 68
2009-06-17 12:47 51°20.849 2°30.668 5.1 34 18.1 101790 68
2009-06-17 12:48 51°20.849 2°30.648 5.7 35 18.1 101790 68
2009-06-17 12:49 51°20.847 2°30.627 4.8 39 18.1 101790 68
2009-06-17 12:50 51°20.846 2°30.605 5.5 33 18 101790 68
2009-06-17 12:51 51°20.844 2°30.584 5.3 40 18 101780 68
2009-06-17 12:52 51°20.843 2°30.562 5.1 33 18 101780 68
2009-06-17 12:53 51°20.841 2°30.542 5.4 41 18 101770 68
2009-06-17 12:54 51°20.841 2°30.522 4.9 39 18 101780 69
2009-06-17 12:55 51°20.838 2°30.502 5.4 31 18 101780 69
2009-06-17 12:56 51°20.836 2°30.484 5.6 33 18 101790 70
2009-06-17 12:57 51°20.832 2°30.468 5.7 39 17.9 101790 70
2009-06-17 12:58 51°20.827 2°30.451 6.5 36 17.9 101780 69
2009-06-17 12:59 51°20.822 2°30.434 5.6 35 17.9 101780 70
2009-06-17 13:00 51°20.817 2°30.415 5.9 41 17.9 101780 70
2009-06-17 13:01 51°20.813 2°30.396 6.3 38 17.9 101780 69
2009-06-17 13:02 51°20.809 2°30.377 5.8 32 17.8 101780 69
2009-06-17 13:03 51°20.805 2°30.357 6 39 17.8 101780 70
2009-06-17 13:04 51°20.801 2°30.339 5.6 37 17.8 101780 69
2009-06-17 13:05 51°20.796 2°30.321 5.2 33 17.8 101770 70
2009-06-17 13:06 51°20.792 2°30.304 5.9 40 17.8 101770 69
2009-06-17 13:07 51°20.786 2°30.288 5.9 33 17.9 101770 69
2009-06-17 13:08 51°20.781 2°30.272 5.1 34 17.9 101770 69
2009-06-17 13:09 51°20.775 2°30.257 5.2 31 17.8 101770 70
2009-06-17 13:10 51°20.769 2°30.242 5.3 40 17.8 101760 70
2009-06-17 13:11 51°20.763 2°30.226 5.6 38 17.8 101760 70
2009-06-17 13:12 51°20.757 2°30.209 5.5 40 17.8 101750 69
2009-06-17 13:13 51°20.751 2°30.193 6.6 38 17.8 101750 69
2009-06-17 13:14 51°20.745 2°30.175 5.1 32 17.8 101760 68
2009-06-17 13:15 51°20.74 2°30.157 5.6 40 17.8 101750 69
2009-06-17 13:16 51°20.734 2°30.139 4.6 39 17.8 101760 68
2009-06-17 13:17 51°20.729 2°30.119 5 32 17.9 101760 68
2009-06-17 13:18 51°20.724 2°30.099 4.8 38 17.9 101760 68
2009-06-17 13:19 51°20.719 2°30.079 4.3 38 17.8 101770 69
2009-06-17 13:20 51°20.714 2°30.058 4.8 32 17.8 101770 70
2009-06-17 13:21 51°20.709 2°30.039 5.6 40 17.8 101760 71
2009-06-17 13:22 51°20.703 2°30.02 4.6 37 17.7 101760 71
2009-06-17 13:23 51°20.696 2°30.002 4.1 32 17.7 101760 71
2009-06-17 13:24 51°20.689 2°29.987 4.7 33 17.6 101760 73
2009-06-17 13:25 51°20.681 2°29.971 5.9 32 17.6 101750 72
2009-06-17 13:26 51°20.673 2°29.955 4.9 40 17.6 101760 71
2009-06-17 13:27 51°20.665 2°29.938 5 38 17.6 101760 72
2009-06-17 13:28 51°20.657 2°29.92 4.1 32 17.6 101760 72
2009-06-17 13:29 51°20.649 2°29.901 4.5 34 17.5 101760 72
2009-06-17 13:30 51°20.641 2°29.88 5.2 31 17.5 101760 73
2009-06-17 13:31 51°20.633 2°29.86 3.1 32 17.5 101760 72
2009-06-17 13:32 51°20.626 2°29.838 2.7 38 17.9 101750 72
2009-06-17 13:33 51°20.62 2°29.816 2.7 33 18.3 101750 69
2009-06-17 13:34 51°20.613 2°29.793 2.6 32 18.7 101740 67
2009-06-17 13:35 51°20.608 2°29.77 2.7 41 18.9 101750 67
2009-06-17 13:36 51°20.602 2°29.747 2.8 34 19 101740 66
2009-06-17 13:37 51°20.596 2°29.724 3.8 39 19 101740 66
2009-06-17 13:38 51°20.591 2°29.701 2.8 34 19 101740 66
2009-06-17 13:39 51°20.586 2°29.678 3.4 40 19 101720 66
2009-06-17 13:40 51°20.581 2°29.655 4.3 38 19 101720 65
2009-06-17 13:41 51°20.576 2°29.633 5 37 18.7 101720 66
2009-06-17 13:42 51°20.572 2°29.611 5 40 18.3 101710 67
2009-06-17 13:43 51°20.567 2°29.589 5.4 37 18.1 101720 69
2009-06-17 13:44 51°20.562 2°29.568 5.9 40 18 101720 70
2009-06-17 13:45 51°20.556 2°29.549 5.6 36 18 101720 70
2009-06-17 13:46 51°20.549 2°29.532 5.9 270 18 101720 70
2009-06-17 13:47 51°20.541 2°29.517 4.9 269 18 101710 70
2009-06-17 13:48 51°20.532 2°29.504 5.7 270 18.1 101710 69
2009-06-17 13:49 51°20.523 2°29.492 4.4 32 18.1 101710 69
2009-06-17 13:50 51°20.514 2°29.479 4.9 35 18.1 101720 70
2009-06-17 13:51 51°20.503 2°29.466 5.6 39 18.1 101710 69
2009-06-17 13:52 51°20.491 2°29.453 5.3 39 18.1 101720 70
2009-06-17 13:53 51°20.478 2°29.439 5.3 36 18 101720 70
2009-06-17 13:54 51°20.466 2°29.425 5.1 36 18 101710 70
2009-06-17 13:55 51°20.454 2°29.409 5.4 39 17.9 101720 70
2009-06-17 13:56 51°20.442 2°29.392 5.4 32 17.9 101710 71
2009-06-17 13:57 51°20.431 2°29.374 5.9 37 17.8 101710 72
2009-06-17 13:58 51°20.42 2°29.356 5.7 34 17.8 101710 71
2009-06-17 13:59 51°20.409 2°29.338 5.8 36 17.8 101710 71
2009-06-17 14:00 51°20.399 2°29.32 5.8 40 17.9 101710 71
2009-06-17 14:01 51°20.39 2°29.302 6 37 17.9 101700 71
2009-06-17 14:02 51°20.382 2°29.286 6.1 35 17.9 101700 70
2009-06-17 14:03 51°20.381 2°29.268 4.1 36 17.9 101700 70
2009-06-17 14:04 51°20.398 2°29.275 4.7 31 18 101690 70
2009-06-17 14:05 51°20.386 2°29.325 6 358 18 101690 70
2009-06-17 14:06 51°20.342 2°29.396 6.7 3 17.9 101680 71
2009-06-17 14:07 51°20.317 2°29.544 6.7 8 17.8 101680 72
2009-06-17 14:08 51°20.318 2°29.721 6.1 11 17.8 101680 71
2009-06-17 14:09 51°20.322 2°29.902 6.4 7 17.9 101680 71
2009-06-17 14:10 51°20.325 2°30.127 6 5 17.9 101680 71
2009-06-17 14:11 51°20.327 2°30.395 6.2 358 17.9 101680 71
2009-06-17 14:12 51°20.309 2°30.661 6.6 358 17.9 101680 72
2009-06-17 14:13 51°20.286 2°30.927 7.1 358 17.9 101680 72
2009-06-17 14:14 51°20.278 2°31.2 7 359 18 101670 72
2009-06-17 14:15 51°20.269 2°31.476 7.1 -999 18 101680 71
2009-06-17 14:16 51°20.246 2°31.752 6 353 18 101680 72
2009-06-17 14:17 51°20.197 2°32.022 9.1 357 17.9 101680 73
2009-06-17 14:18 51°20.147 2°32.293 8 359 18 101670 72
2009-06-17 14:19 51°20.102 2°32.566 9.1 359 18.1 101670 71
2009-06-17 14:20 51°20.066 2°32.841 8.5 358 18.2 101670 71
2009-06-17 14:21 51°20.031 2°33.117 8.7 359 18.3 101670 69
2009-06-17 14:22 51°20 2°33.394 8.4 -999 18.4 101670 69
2009-06-17 14:23 51°19.985 2°33.674 7 359 18.4 101670 70
2009-06-17 14:24 51°19.976 2°33.953 6.4 1 18.4 101670 70
2009-06-17 14:25 51°19.97 2°34.23 7.6 360 18.4 101660 70
2009-06-17 14:26 51°19.969 2°34.508 7.3 1 18.3 101660 70
2009-06-17 14:27 51°19.979 2°34.785 7.6 1 18.3 101660 70
2009-06-17 14:28 51°19.988 2°35.062 7.1 2 18.4 101660 69
2009-06-17 14:29 51°19.997 2°35.339 6.8 360 18.4 101660 70
2009-06-17 14:30 51°20.007 2°35.617 7.6 1 18.4 101650 69
2009-06-17 14:31 51°20.015 2°35.897 7.3 360 18.4 101660 69
2009-06-17 14:32 51°20.02 2°36.178 7.2 358 18.5 101650 69
2009-06-17 14:33 51°20.024 2°36.458 7.2 356 18.5 101650 70
2009-06-17 14:34 51°20.045 2°36.684 4.4 18 18.4 101650 71
2009-06-17 14:35 51°20.078 2°36.754 4.6 32 18.4 101660 72
2009-06-17 14:36 51°20.084 2°36.795 5.1 21 18.5 101660 70
2009-06-17 14:37 51°20.086 2°36.828 4.6 25 18.6 101660 69
2009-06-17 14:38 51°20.089 2°36.87 4.8 25 18.7 101660 70
2009-06-17 14:39 51°20.097 2°36.912 4.5 30 18.7 101650 70
2009-06-17 14:40 51°20.101 2°36.928 5.3 33 18.7 101640 70
2009-06-17 14:41 51°20.099 2°36.925 5 29 18.7 101650 69
2009-06-17 14:42 51°20.095 2°36.916 6.2 26 18.7 101650 69
2009-06-17 14:43 51°20.089 2°36.896 5.9 25 18.8 101650 68
2009-06-17 14:44 51°20.084 2°36.873 5 19 18.8 101640 68
2009-06-17 14:45 51°20.08 2°36.849 5.9 15 18.8 101640 68
2009-06-17 14:46 51°20.076 2°36.83 5.5 22 18.9 101640 68
2009-06-17 14:47 51°20.075 2°36.859 4.2 35 18.9 101640 68
2009-06-17 14:48 51°20.091 2°36.913 4.6 32 18.9 101640 68
2009-06-17 14:49 51°20.103 2°36.943 4.9 36 18.9 101640 68
2009-06-17 14:50 51°20.109 2°36.938 5.5 32 18.9 101630 68
2009-06-17 14:51 51°20.108 2°36.925 5.4 40 18.8 101640 68
2009-06-17 14:52 51°20.105 2°36.908 6.2 34 18.8 101630 68
2009-06-17 14:53 51°20.101 2°36.89 6.1 28 18.8 101640 68
2009-06-17 14:54 51°20.095 2°36.872 6 26 18.7 101630 69
2009-06-17 14:55 51°20.089 2°36.852 5.9 21 18.7 101630 69
2009-06-17 14:56 51°20.083 2°36.835 5.7 20 18.7 101630 69
2009-06-17 14:57 51°20.081 2°36.859 5.1 33 18.7 101630 68
2009-06-17 14:58 51°20.097 2°36.921 5.7 37 18.8 101630 67
2009-06-17 14:59 51°20.101 2°36.945 6.6 30 18.9 101630 66
2009-06-17 15:00 51°20.096 2°36.924 6.6 29 19 101630 66
2009-06-17 15:01 51°20.091 2°36.903 6.4 32 19 101630 67
2009-06-17 15:02 51°20.086 2°36.883 6.3 32 19 101630 67
2009-06-17 15:03 51°20.082 2°36.865 6.7 28 19 101620 67
2009-06-17 15:04 51°20.078 2°36.849 6 24 19 101630 67
2009-06-17 15:05 51°20.064 2°36.857 6 5 18.9 101630 68
2009-06-17 15:06 51°20 2°36.833 8.3 322 18.9 101610 67
2009-06-17 15:07 51°19.96 2°36.646 11.6 37 19 101600 65
2009-06-17 15:08 51°19.934 2°36.346 10.1 41 19.2 101590 65
2009-06-17 15:09 51°19.913 2°36.006 10.4 27 19.2 101590 65
2009-06-17 15:10 51°19.896 2°35.662 10 40 19.2 101580 64
2009-06-17 15:11 51°19.877 2°35.318 9.6 34 19.2 101580 65
2009-06-17 15:12 51°19.862 2°34.981 9.2 317 19.2 101600 67
2009-06-17 15:13 51°19.855 2°34.63 11.9 32 19.1 101580 66
2009-06-17 15:14 51°19.845 2°34.289 10.7 316 19.2 101590 66
2009-06-17 15:15 51°19.836 2°33.936 10.9 321 19.1 101600 67
2009-06-17 15:16 51°19.83 2°33.59 10.1 327 18.9 101600 69
2009-06-17 15:17 51°19.82 2°33.258 11 328 18.8 101600 70
2009-06-17 15:18 51°19.798 2°33.03 10 333 18.6 101610 69
2009-06-17 15:19 51°19.773 2°32.917 6.6 347 18.6 101610 66
2009-06-17 15:20 51°19.745 2°32.859 5.8 346 18.5 101610 67
2009-06-17 15:21 51°19.722 2°32.801 4.8 337 18.3 101620 68
2009-06-17 15:22 51°19.708 2°32.745 6.2 329 18.4 101620 67
2009-06-17 15:23 51°19.702 2°32.692 5.5 317 18.4 101610 66
2009-06-17 15:24 51°19.702 2°32.645 4.3 32 18.6 101620 66
2009-06-17 15:25 51°19.702 2°32.606 3.8 38 18.7 101610 66
2009-06-17 15:26 51°19.703 2°32.571 4.9 36 18.7 101610 66
2009-06-17 15:27 51°19.703 2°32.541 5.9 234 18.7 101610 65
2009-06-17 15:28 51°19.704 2°32.516 4.4 236 18.7 101610 65
2009-06-17 15:29 51°19.704 2°32.495 4.6 240 18.8 101610 65
2009-06-17 15:30 51°19.701 2°32.476 5.3 246 18.8 101610 66
2009-06-17 15:31 51°19.698 2°32.458 4.7 250 18.8 101610 66
2009-06-17 15:32 51°19.695 2°32.442 5.3 256 18.9 101620 66
2009-06-17 15:33 51°19.692 2°32.425 4.1 259 18.8 101610 65
2009-06-17 15:34 51°19.687 2°32.409 3.2 264 18.8 101610 66
2009-06-17 15:35 51°19.682 2°32.393 3.3 269 18.7 101610 66
2009-06-17 15:36 51°19.678 2°32.376 3.9 327 18.5 101610 67
2009-06-17 15:37 51°19.704 2°32.389 1.6 41 18.4 101610 68
2009-06-17 15:38 51°19.714 2°32.487 1.1 35 18.4 101610 69
2009-06-17 15:39 51°19.72 2°32.598 2.4 27 18.3 101620 69
2009-06-17 15:40 51°19.727 2°32.645 2 34 18.3 101620 69
2009-06-17 15:41 51°19.736 2°32.666 1.7 22 18.3 101610 71
2009-06-17 15:42 51°19.746 2°32.675 3.6 39 18.4 101610 69
2009-06-17 15:43 51°19.755 2°32.675 3.7 33 18.2 101610 69
2009-06-17 15:44 51°19.764 2°32.669 4.5 32 18.1 101610 70
2009-06-17 15:45 51°19.77 2°32.662 4.2 40 18 101610 70
2009-06-17 15:46 51°19.776 2°32.653 4.5 35 18 101610 71
2009-06-17 15:47 51°19.782 2°32.641 4.3 270 17.9 101600 71
2009-06-17 15:48 51°19.788 2°32.628 4 267 17.9 101600 71
2009-06-17 15:49 51°19.792 2°32.613 3.8 267 17.9 101600 72
2009-06-17 15:50 51°19.795 2°32.598 5.2 261 17.9 101600 71
2009-06-17 15:51 51°19.797 2°32.582 5.1 263 17.9 101600 71
2009-06-17 15:52 51°19.798 2°32.568 4.9 253 17.9 101600 70
2009-06-17 15:53 51°19.799 2°32.555 4.5 250 18 101600 70
2009-06-17 15:54 51°19.8 2°32.543 6.5 254 18.1 101600 71
2009-06-17 15:55 51°19.8 2°32.534 5.9 256 18 101600 70
2009-06-17 15:56 51°19.8 2°32.526 4.6 261 18.1 101600 70
2009-06-17 15:57 51°19.799 2°32.518 4.2 263 18 101590 70
2009-06-17 15:58 51°19.797 2°32.51 3.2 263 18 101590 70
2009-06-17 15:59 51°19.796 2°32.504 3.8 265 18 101590 70
2009-06-17 16:00 51°19.794 2°32.496 3.7 265 17.9 101580 70
2009-06-17 16:01 51°19.792 2°32.49 3.2 266 17.9 101580 71
2009-06-17 16:02 51°19.791 2°32.484 4.4 267 17.9 101580 70
2009-06-17 16:03 51°19.788 2°32.479 4.8 268 17.9 101580 70
2009-06-17 16:04 51°19.787 2°32.474 5.1 269 17.9 101580 70
2009-06-17 16:05 51°19.785 2°32.47 4.1 264 17.9 101580 69
2009-06-17 16:06 51°19.784 2°32.466 4.3 267 17.9 101590 71
2009-06-17 16:07 51°19.782 2°32.463 4.2 266 17.9 101590 70
2009-06-17 16:08 51°19.781 2°32.459 3.9 263 17.9 101580 70
2009-06-17 16:09 51°19.78 2°32.456 4.4 263 17.9 101580 70
2009-06-17 16:10 51°19.778 2°32.453 4.2 267 18 101570 69
2009-06-17 16:11 51°19.776 2°32.451 4.3 266 18 101570 68
2009-06-17 16:12 51°19.775 2°32.448 3.6 266 18.1 101580 68
2009-06-17 16:13 51°19.773 2°32.446 3.3 266 18.1 101570 68
2009-06-17 16:14 51°19.771 2°32.444 4.8 270 18.1 101570 68
2009-06-17 16:15 51°19.77 2°32.443 4.7 268 18.2 101570 67
2009-06-17 16:16 51°19.768 2°32.441 4.1 268 18.2 101570 67
2009-06-17 16:17 51°19.767 2°32.44 4.3 270 18.2 101570 68
2009-06-17 16:18 51°19.767 2°32.439 5 269 18.2 101570 68
2009-06-17 16:19 51°19.766 2°32.438 4 267 18.1 101570 68
2009-06-17 16:20 51°19.766 2°32.439 3.9 263 18.2 101570 68
2009-06-17 16:21 51°19.766 2°32.439 4.1 265 18.2 101580 68
2009-06-17 16:22 51°19.766 2°32.439 3.9 265 18.1 101570 69
2009-06-17 16:23 51°19.766 2°32.44 3.5 267 18.1 101580 69
2009-06-17 16:24 51°19.767 2°32.441 4.3 267 18.1 101580 69
2009-06-17 16:25 51°19.769 2°32.444 2.8 264 18.1 101580 69
2009-06-17 16:26 51°19.77 2°32.445 3.1 265 18 101580 69
2009-06-17 16:27 51°19.771 2°32.448 3.4 265 18 101590 69
2009-06-17 16:28 51°19.772 2°32.45 3.4 263 18 101590 69
2009-06-17 16:29 51°19.773 2°32.453 4.9 268 17.9 101590 70
2009-06-17 16:30 51°19.774 2°32.456 4.7 267 17.9 101590 69
2009-06-17 16:31 51°19.776 2°32.46 3.8 268 17.9 101590 69
2009-06-17 16:32 51°19.778 2°32.464 4.4 269 17.9 101590 70
2009-06-17 16:33 51°19.779 2°32.468 3.8 266 17.9 101590 70
2009-06-17 16:34 51°19.781 2°32.472 3.8 265 17.8 101580 71
2009-06-17 16:35 51°19.783 2°32.477 3.5 264 17.8 101590 71
2009-06-17 16:36 51°19.785 2°32.483 4.5 265 17.8 101590 70
2009-06-17 16:37 51°19.787 2°32.489 5.7 269 17.7 101580 70
2009-06-17 16:38 51°19.789 2°32.496 5.4 266 17.7 101580 69
2009-06-17 16:39 51°19.792 2°32.503 4.3 265 17.8 101580 70
2009-06-17 16:40 51°19.812 2°32.511 3.7 269 17.8 101570 69
2009-06-17 16:41 51°19.86 2°32.574 2.6 33 17.8 101580 69
2009-06-17 16:42 51°19.847 2°32.711 4.1 18 17.9 101580 69
2009-06-17 16:43 51°19.792 2°32.933 4 4 17.8 101570 69
2009-06-17 16:44 51°19.707 2°33.164 5.4 2 17.8 101570 68
2009-06-17 16:45 51°19.584 2°33.398 6.8 2 17.8 101570 70
2009-06-17 16:46 51°19.457 2°33.632 7 4 17.7 101570 69
2009-06-17 16:47 51°19.33 2°33.869 5.7 3 17.7 101560 69
2009-06-17 16:48 51°19.21 2°34.102 4.9 3 17.7 101570 69
2009-06-17 16:49 51°19.084 2°34.342 4.7 8 17.7 101560 70
2009-06-17 16:50 51°18.96 2°34.57 5.6 -999 17.7 101560 69
2009-06-17 16:51 51°18.835 2°34.809 6.3 8 17.7 101570 69
2009-06-17 16:52 51°18.713 2°35.047 5.3 5 17.8 101570 69
2009-06-17 16:53 51°18.591 2°35.282 6 5 17.8 101570 70
2009-06-17 16:54 51°18.469 2°35.517 4.8 4 17.7 101560 70
2009-06-17 16:55 51°18.345 2°35.755 5.4 4 17.7 101560 70
2009-06-17 16:56 51°18.219 2°35.993 5.5 3 17.7 101570 70
2009-06-17 16:57 51°18.105 2°36.244 4.4 15 17.7 101570 69
2009-06-17 16:58 51°18.056 2°36.542 2.3 8 17.7 101570 71
2009-06-17 16:59 51°18.05 2°36.854 2.5 3 17.7 101570 70
2009-06-17 17:00 51°18.035 2°37.165 1.9 5 17.7 101570 70
2009-06-17 17:01 51°18.022 2°37.478 3.1 6 17.7 101570 70
2009-06-17 17:02 51°18.009 2°37.794 3.1 354 17.7 101570 70
2009-06-17 17:03 51°17.998 2°38.112 2.7 353 17.7 101570 70
2009-06-17 17:04 51°17.989 2°38.432 3 357 17.7 101570 71
2009-06-17 17:05 51°17.967 2°38.751 2.9 1 17.7 101570 71
2009-06-17 17:06 51°17.942 2°39.066 3.2 357 17.7 101570 70
2009-06-17 17:07 51°17.91 2°39.38 3.4 351 17.8 101570 71
2009-06-17 17:08 51°17.861 2°39.69 3 350 17.8 101570 71
2009-06-17 17:09 51°17.811 2°40.005 3.6 353 17.8 101580 70
2009-06-17 17:10 51°17.759 2°40.318 2.7 5 17.8 101570 69
2009-06-17 17:11 51°17.704 2°40.63 3.1 357 17.9 101570 69
2009-06-17 17:12 51°17.655 2°40.941 2.7 -999 17.9 101570 68
2009-06-17 17:13 51°17.608 2°41.252 2.3 6 18 101570 68
2009-06-17 17:14 51°17.563 2°41.564 3.1 358 18 101570 68
2009-06-17 17:15 51°17.521 2°41.879 2.5 14 18 101570 67
2009-06-17 17:16 51°17.479 2°42.193 2.6 360 18 101560 68
2009-06-17 17:17 51°17.419 2°42.498 2.8 6 18.1 101560 68
2009-06-17 17:18 51°17.339 2°42.794 3.9 3 18.1 101550 67
2009-06-17 17:19 51°17.256 2°43.09 4.1 1 18.1 101560 67
2009-06-17 17:20 51°17.175 2°43.383 3.2 4 18.1 101550 68
2009-06-17 17:21 51°17.094 2°43.67 4 3 18.1 101550 67
2009-06-17 17:22 51°17.015 2°43.96 4 6 18.1 101540 68
2009-06-17 17:23 51°16.933 2°44.249 4.6 1 18.1 101540 68
2009-06-17 17:24 51°16.839 2°44.529 3.8 5 18.1 101540 67
2009-06-17 17:25 51°16.743 2°44.807 4 2 18.1 101540 68
2009-06-17 17:26 51°16.648 2°45.086 4.1 -999 18.1 101540 68
2009-06-17 17:27 51°16.556 2°45.366 3.7 358 18 101540 67
2009-06-17 17:28 51°16.467 2°45.647 4.4 5 18.1 101540 67
2009-06-17 17:29 51°16.378 2°45.931 3.8 1 18.1 101540 67
2009-06-17 17:30 51°16.305 2°46.228 3.6 3 18.1 101540 68
2009-06-17 17:31 51°16.239 2°46.533 3.1 5 18.1 101530 67
2009-06-17 17:32 51°16.176 2°46.843 3.6 12 18.1 101540 68
2009-06-17 17:33 51°16.113 2°47.153 2.9 1 18.1 101540 68
2009-06-17 17:34 51°16.048 2°47.463 2.9 2 18.2 101540 68
2009-06-17 17:35 51°15.986 2°47.777 2.4 -999 18.2 101540 67
2009-06-17 17:36 51°15.925 2°48.09 2.3 1 18.2 101540 68
2009-06-17 17:37 51°15.864 2°48.402 2.2 5 18.2 101540 68
2009-06-17 17:38 51°15.811 2°48.716 2.8 1 18.2 101540 68
2009-06-17 17:39 51°15.764 2°49.033 2.6 352 18.2 101540 68
2009-06-17 17:40 51°15.714 2°49.351 2.3 358 18.3 101540 69
2009-06-17 17:41 51°15.662 2°49.668 2.3 355 18.2 101540 69
2009-06-17 17:42 51°15.613 2°49.988 2.5 356 18.2 101540 68
2009-06-17 17:43 51°15.569 2°50.31 2.4 349 18.3 101540 68
2009-06-17 17:44 51°15.523 2°50.632 2.2 2 18.2 101540 68
2009-06-17 17:45 51°15.474 2°50.952 2.5 357 18.3 101540 69
2009-06-17 17:46 51°15.413 2°51.264 3.1 355 18.2 101530 70
2009-06-17 17:47 51°15.343 2°51.571 2.7 356 18.2 101540 69
2009-06-17 17:48 51°15.275 2°51.879 2.5 2 18.2 101540 69
2009-06-17 17:49 51°15.199 2°52.18 3 352 18.3 101540 69
2009-06-17 17:50 51°15.122 2°52.48 3.1 355 18.3 101540 69
2009-06-17 17:51 51°15.048 2°52.784 3 358 18.3 101540 69
2009-06-17 17:52 51°14.975 2°53.091 2.9 351 18.3 101530 70
2009-06-17 17:53 51°14.902 2°53.402 3.6 356 18.3 101540 70
2009-06-17 17:54 51°14.823 2°53.707 2.7 355 18.2 101540 70
2009-06-17 17:55 51°14.74 2°54.01 3.8 358 18.2 101530 69
2009-06-17 17:56 51°14.654 2°54.308 3.6 352 18.3 101520 69
2009-06-17 17:57 51°14.563 2°54.601 4.8 349 18.3 101520 70
2009-06-17 17:58 51°14.457 2°54.876 5.5 348 18.2 101520 70
2009-06-17 17:59 51°14.337 2°55.129 6.3 341 18.2 101520 71
2009-06-17 18:00 51°14.218 2°55.313 5 353 18.2 101520 72
2009-06-17 18:01 51°14.092 2°55.431 3.4 351 18.3 101530 66
2009-06-17 18:02 51°13.955 2°55.532 4.7 355 18.6 101530 63
2009-06-17 18:03 51°13.838 2°55.621 3.9 -999 18.8 101530 63
2009-06-17 18:04 51°13.753 2°55.722 3 352 18.9 101520 61
2009-06-17 18:05 51°13.7 2°55.822 3.1 35 19.1 101520 60
2009-06-17 18:06 51°13.673 2°55.904 4 40 19.1 101520 59
2009-06-17 18:07 51°13.665 2°55.951 2.5 34 19.2 101520 59
2009-06-17 18:08 51°13.662 2°55.959 5.1 33 19.5 101510 57
2009-06-17 18:09 51°13.662 2°55.959 3.9 36 19.6 101510 57
2009-06-17 18:10 51°13.662 2°55.959 3.4 41 19.6 101510 58